sensor_id;sensor_type;location;lat;lon;timestamp;P1;durP1;ratioP1;P2;durP2;ratioP2
34098;SDS011;20374;49.474;10.944;2022-07-18T00:00:31;3.90;;;3.60;;
34098;SDS011;20374;49.474;10.944;2022-07-18T00:02:57;3.75;;;3.20;;
34098;SDS011;20374;49.474;10.944;2022-07-18T00:05:22;3.38;;;3.10;;
34098;SDS011;20374;49.474;10.944;2022-07-18T00:07:49;3.30;;;3.03;;
34098;SDS011;20374;49.474;10.944;2022-07-18T00:10:14;4.05;;;3.08;;
34098;SDS011;20374;49.474;10.944;2022-07-18T00:12:40;3.97;;;3.67;;
34098;SDS011;20374;49.474;10.944;2022-07-18T00:15:06;4.70;;;3.60;;
34098;SDS011;20374;49.474;10.944;2022-07-18T00:17:33;3.40;;;3.13;;
34098;SDS011;20374;49.474;10.944;2022-07-18T00:19:58;3.33;;;3.03;;
34098;SDS011;20374;49.474;10.944;2022-07-18T00:22:24;3.90;;;3.60;;
34098;SDS011;20374;49.474;10.944;2022-07-18T00:24:50;3.77;;;3.40;;
34098;SDS011;20374;49.474;10.944;2022-07-18T00:27:16;3.70;;;3.40;;
34098;SDS011;20374;49.474;10.944;2022-07-18T00:29:42;3.40;;;3.10;;
34098;SDS011;20374;49.474;10.944;2022-07-18T00:32:08;3.20;;;3.00;;
34098;SDS011;20374;49.474;10.944;2022-07-18T00:34:34;3.92;;;3.63;;
34098;SDS011;20374;49.474;10.944;2022-07-18T00:37:01;3.33;;;3.13;;
34098;SDS011;20374;49.474;10.944;2022-07-18T00:39:27;3.55;;;3.25;;
34098;SDS011;20374;49.474;10.944;2022-07-18T00:41:53;3.43;;;3.13;;
34098;SDS011;20374;49.474;10.944;2022-07-18T00:44:21;3.72;;;3.42;;
34098;SDS011;20374;49.474;10.944;2022-07-18T00:46:49;3.60;;;3.30;;
34098;SDS011;20374;49.474;10.944;2022-07-18T00:49:15;3.78;;;3.47;;
34098;SDS011;20374;49.474;10.944;2022-07-18T00:51:42;3.60;;;3.20;;
34098;SDS011;20374;49.474;10.944;2022-07-18T00:54:08;3.40;;;3.20;;
34098;SDS011;20374;49.474;10.944;2022-07-18T00:56:34;4.40;;;4.03;;
34098;SDS011;20374;49.474;10.944;2022-07-18T00:59:00;4.53;;;3.33;;
34098;SDS011;20374;49.474;10.944;2022-07-18T01:01:26;4.50;;;3.53;;
34098;SDS011;20374;49.474;10.944;2022-07-18T01:04:12;5.90;;;3.20;;
34098;SDS011;20374;49.474;10.944;2022-07-18T01:06:40;3.65;;;3.40;;
34098;SDS011;20374;49.474;10.944;2022-07-18T01:09:06;3.30;;;3.10;;
34098;SDS011;20374;49.474;10.944;2022-07-18T01:11:33;3.57;;;3.27;;
34098;SDS011;20374;49.474;10.944;2022-07-18T01:14:02;3.33;;;3.10;;
34098;SDS011;20374;49.474;10.944;2022-07-18T01:16:30;4.70;;;3.40;;
34098;SDS011;20374;49.474;10.944;2022-07-18T01:18:56;3.25;;;2.95;;
34098;SDS011;20374;49.474;10.944;2022-07-18T01:21:22;3.63;;;3.33;;
34098;SDS011;20374;49.474;10.944;2022-07-18T01:23:48;3.33;;;2.77;;
34098;SDS011;20374;49.474;10.944;2022-07-18T01:26:14;3.60;;;3.30;;
34098;SDS011;20374;49.474;10.944;2022-07-18T01:28:41;3.42;;;3.22;;
34098;SDS011;20374;49.474;10.944;2022-07-18T01:31:07;3.08;;;2.78;;
34098;SDS011;20374;49.474;10.944;2022-07-18T01:33:34;3.20;;;2.90;;
34098;SDS011;20374;49.474;10.944;2022-07-18T01:36:00;2.90;;;2.70;;
34098;SDS011;20374;49.474;10.944;2022-07-18T01:38:28;2.88;;;2.67;;
34098;SDS011;20374;49.474;10.944;2022-07-18T01:40:55;3.10;;;2.90;;
34098;SDS011;20374;49.474;10.944;2022-07-18T01:43:22;3.00;;;2.80;;
34098;SDS011;20374;49.474;10.944;2022-07-18T01:45:48;3.17;;;2.97;;
34098;SDS011;20374;49.474;10.944;2022-07-18T01:48:14;3.55;;;3.25;;
34098;SDS011;20374;49.474;10.944;2022-07-18T01:50:41;3.13;;;2.92;;
34098;SDS011;20374;49.474;10.944;2022-07-18T01:53:07;3.58;;;3.30;;
34098;SDS011;20374;49.474;10.944;2022-07-18T01:55:32;2.83;;;2.60;;
34098;SDS011;20374;49.474;10.944;2022-07-18T01:57:58;3.60;;;3.30;;
34098;SDS011;20374;49.474;10.944;2022-07-18T02:00:24;3.60;;;3.30;;
34098;SDS011;20374;49.474;10.944;2022-07-18T02:02:50;3.90;;;3.60;;
34098;SDS011;20374;49.474;10.944;2022-07-18T02:05:16;4.18;;;3.10;;
34098;SDS011;20374;49.474;10.944;2022-07-18T02:07:42;3.58;;;3.17;;
34098;SDS011;20374;49.474;10.944;2022-07-18T02:10:15;3.10;;;2.90;;
34098;SDS011;20374;49.474;10.944;2022-07-18T02:12:43;3.50;;;3.30;;
34098;SDS011;20374;49.474;10.944;2022-07-18T02:15:10;3.58;;;3.28;;
34098;SDS011;20374;49.474;10.944;2022-07-18T02:17:38;3.80;;;3.50;;
34098;SDS011;20374;49.474;10.944;2022-07-18T02:20:04;3.10;;;2.90;;
34098;SDS011;20374;49.474;10.944;2022-07-18T02:22:31;3.63;;;3.33;;
34098;SDS011;20374;49.474;10.944;2022-07-18T02:24:57;4.13;;;3.70;;
34098;SDS011;20374;49.474;10.944;2022-07-18T02:27:23;3.30;;;3.10;;
34098;SDS011;20374;49.474;10.944;2022-07-18T02:29:49;3.00;;;2.70;;
34098;SDS011;20374;49.474;10.944;2022-07-18T02:32:15;3.20;;;3.00;;
34098;SDS011;20374;49.474;10.944;2022-07-18T02:34:42;3.60;;;3.30;;
34098;SDS011;20374;49.474;10.944;2022-07-18T02:37:08;3.65;;;3.40;;
34098;SDS011;20374;49.474;10.944;2022-07-18T02:39:33;3.50;;;2.97;;
34098;SDS011;20374;49.474;10.944;2022-07-18T02:42:00;3.90;;;3.60;;
34098;SDS011;20374;49.474;10.944;2022-07-18T02:44:26;3.90;;;2.95;;
34098;SDS011;20374;49.474;10.944;2022-07-18T02:46:52;3.08;;;2.88;;
34098;SDS011;20374;49.474;10.944;2022-07-18T02:49:17;2.45;;;2.25;;
34098;SDS011;20374;49.474;10.944;2022-07-18T02:54:25;5.70;;;3.30;;
34098;SDS011;20374;49.474;10.944;2022-07-18T02:56:52;3.30;;;3.10;;
34098;SDS011;20374;49.474;10.944;2022-07-18T02:59:18;3.75;;;3.45;;
34098;SDS011;20374;49.474;10.944;2022-07-18T03:01:44;3.22;;;3.00;;
34098;SDS011;20374;49.474;10.944;2022-07-18T03:04:10;3.80;;;3.50;;
34098;SDS011;20374;49.474;10.944;2022-07-18T03:06:36;3.50;;;3.20;;
34098;SDS011;20374;49.474;10.944;2022-07-18T03:09:03;3.50;;;3.20;;
34098;SDS011;20374;49.474;10.944;2022-07-18T03:11:29;3.40;;;3.10;;
34098;SDS011;20374;49.474;10.944;2022-07-18T03:13:55;4.20;;;3.63;;
34098;SDS011;20374;49.474;10.944;2022-07-18T03:16:21;3.90;;;3.60;;
34098;SDS011;20374;49.474;10.944;2022-07-18T03:18:47;3.17;;;2.97;;
34098;SDS011;20374;49.474;10.944;2022-07-18T03:21:13;3.53;;;3.28;;
34098;SDS011;20374;49.474;10.944;2022-07-18T03:23:39;3.50;;;3.20;;
34098;SDS011;20374;49.474;10.944;2022-07-18T03:26:05;3.30;;;3.00;;
34098;SDS011;20374;49.474;10.944;2022-07-18T03:28:30;3.35;;;2.95;;
34098;SDS011;20374;49.474;10.944;2022-07-18T03:30:56;3.58;;;2.88;;
34098;SDS011;20374;49.474;10.944;2022-07-18T03:33:26;2.90;;;2.70;;
34098;SDS011;20374;49.474;10.944;2022-07-18T03:35:52;4.30;;;2.88;;
34098;SDS011;20374;49.474;10.944;2022-07-18T03:38:18;3.47;;;3.17;;
34098;SDS011;20374;49.474;10.944;2022-07-18T03:40:43;3.20;;;2.85;;
34098;SDS011;20374;49.474;10.944;2022-07-18T03:43:09;3.10;;;2.87;;
34098;SDS011;20374;49.474;10.944;2022-07-18T03:45:35;3.50;;;3.20;;
34098;SDS011;20374;49.474;10.944;2022-07-18T03:48:01;3.47;;;3.28;;
34098;SDS011;20374;49.474;10.944;2022-07-18T03:50:27;3.53;;;3.30;;
34098;SDS011;20374;49.474;10.944;2022-07-18T03:52:53;3.08;;;2.83;;
34098;SDS011;20374;49.474;10.944;2022-07-18T03:55:20;3.20;;;2.92;;
34098;SDS011;20374;49.474;10.944;2022-07-18T03:57:46;4.60;;;3.40;;
34098;SDS011;20374;49.474;10.944;2022-07-18T04:00:12;3.17;;;2.97;;
34098;SDS011;20374;49.474;10.944;2022-07-18T04:02:42;3.03;;;2.83;;
34098;SDS011;20374;49.474;10.944;2022-07-18T04:05:09;3.22;;;3.03;;
34098;SDS011;20374;49.474;10.944;2022-07-18T04:07:36;5.80;;;3.60;;
34098;SDS011;20374;49.474;10.944;2022-07-18T04:10:03;3.92;;;3.53;;
34098;SDS011;20374;49.474;10.944;2022-07-18T04:12:29;4.25;;;3.30;;
34098;SDS011;20374;49.474;10.944;2022-07-18T04:14:56;4.30;;;2.97;;
34098;SDS011;20374;49.474;10.944;2022-07-18T04:17:22;3.92;;;3.63;;
34098;SDS011;20374;49.474;10.944;2022-07-18T04:19:48;3.25;;;2.95;;
34098;SDS011;20374;49.474;10.944;2022-07-18T04:22:14;3.50;;;3.30;;
34098;SDS011;20374;49.474;10.944;2022-07-18T04:24:39;3.90;;;3.50;;
34098;SDS011;20374;49.474;10.944;2022-07-18T04:27:05;3.60;;;3.30;;
34098;SDS011;20374;49.474;10.944;2022-07-18T04:29:31;3.55;;;3.25;;
34098;SDS011;20374;49.474;10.944;2022-07-18T04:31:58;3.65;;;3.35;;
34098;SDS011;20374;49.474;10.944;2022-07-18T04:34:24;3.53;;;3.28;;
34098;SDS011;20374;49.474;10.944;2022-07-18T04:36:50;3.90;;;3.60;;
34098;SDS011;20374;49.474;10.944;2022-07-18T04:39:16;3.70;;;3.40;;
34098;SDS011;20374;49.474;10.944;2022-07-18T04:41:42;3.77;;;3.47;;
34098;SDS011;20374;49.474;10.944;2022-07-18T04:44:08;4.35;;;3.65;;
34098;SDS011;20374;49.474;10.944;2022-07-18T04:46:34;4.00;;;3.70;;
34098;SDS011;20374;49.474;10.944;2022-07-18T04:49:00;4.10;;;3.80;;
34098;SDS011;20374;49.474;10.944;2022-07-18T04:51:26;5.78;;;4.40;;
34098;SDS011;20374;49.474;10.944;2022-07-18T04:53:53;5.15;;;4.75;;
34098;SDS011;20374;49.474;10.944;2022-07-18T04:56:22;4.38;;;4.07;;
34098;SDS011;20374;49.474;10.944;2022-07-18T04:58:48;4.28;;;3.97;;
34098;SDS011;20374;49.474;10.944;2022-07-18T05:01:14;3.63;;;3.33;;
34098;SDS011;20374;49.474;10.944;2022-07-18T05:03:40;4.50;;;4.15;;
34098;SDS011;20374;49.474;10.944;2022-07-18T05:06:06;4.07;;;3.78;;
34098;SDS011;20374;49.474;10.944;2022-07-18T05:08:32;4.43;;;4.07;;
34098;SDS011;20374;49.474;10.944;2022-07-18T05:10:58;4.55;;;4.25;;
34098;SDS011;20374;49.474;10.944;2022-07-18T05:13:24;4.45;;;4.15;;
34098;SDS011;20374;49.474;10.944;2022-07-18T05:15:50;3.95;;;3.58;;
34098;SDS011;20374;49.474;10.944;2022-07-18T05:18:16;4.40;;;4.00;;
34098;SDS011;20374;49.474;10.944;2022-07-18T05:20:42;5.10;;;4.70;;
34098;SDS011;20374;49.474;10.944;2022-07-18T05:23:07;4.50;;;4.20;;
34098;SDS011;20374;49.474;10.944;2022-07-18T05:25:34;5.00;;;4.60;;
34098;SDS011;20374;49.474;10.944;2022-07-18T05:28:00;4.70;;;4.40;;
34098;SDS011;20374;49.474;10.944;2022-07-18T05:30:26;5.03;;;4.68;;
34098;SDS011;20374;49.474;10.944;2022-07-18T05:32:52;5.50;;;4.90;;
34098;SDS011;20374;49.474;10.944;2022-07-18T05:35:18;5.68;;;5.28;;
34098;SDS011;20374;49.474;10.944;2022-07-18T05:37:44;5.22;;;4.78;;
34098;SDS011;20374;49.474;10.944;2022-07-18T05:40:11;5.30;;;4.97;;
34098;SDS011;20374;49.474;10.944;2022-07-18T05:42:39;5.53;;;5.13;;
34098;SDS011;20374;49.474;10.944;2022-07-18T05:45:05;5.53;;;5.13;;
34098;SDS011;20374;49.474;10.944;2022-07-18T05:47:32;5.10;;;4.80;;
34098;SDS011;20374;49.474;10.944;2022-07-18T05:49:58;5.40;;;5.00;;
34098;SDS011;20374;49.474;10.944;2022-07-18T05:52:24;5.23;;;4.90;;
34098;SDS011;20374;49.474;10.944;2022-07-18T05:54:50;4.30;;;3.90;;
34098;SDS011;20374;49.474;10.944;2022-07-18T05:57:16;4.47;;;4.07;;
34098;SDS011;20374;49.474;10.944;2022-07-18T05:59:42;4.53;;;4.13;;
34098;SDS011;20374;49.474;10.944;2022-07-18T06:02:08;5.90;;;4.60;;
34098;SDS011;20374;49.474;10.944;2022-07-18T06:04:33;4.10;;;3.80;;
34098;SDS011;20374;49.474;10.944;2022-07-18T06:06:59;4.40;;;4.00;;
34098;SDS011;20374;49.474;10.944;2022-07-18T06:09:25;4.18;;;3.85;;
34098;SDS011;20374;49.474;10.944;2022-07-18T06:11:56;4.53;;;4.18;;
34098;SDS011;20374;49.474;10.944;2022-07-18T06:14:25;4.20;;;3.90;;
34098;SDS011;20374;49.474;10.944;2022-07-18T06:16:52;3.58;;;3.28;;
34098;SDS011;20374;49.474;10.944;2022-07-18T06:19:18;4.17;;;3.87;;
34098;SDS011;20374;49.474;10.944;2022-07-18T06:21:44;4.78;;;4.38;;
34098;SDS011;20374;49.474;10.944;2022-07-18T06:24:10;4.90;;;4.50;;
34098;SDS011;20374;49.474;10.944;2022-07-18T06:26:36;4.83;;;4.43;;
34098;SDS011;20374;49.474;10.944;2022-07-18T06:29:02;5.03;;;4.72;;
34098;SDS011;20374;49.474;10.944;2022-07-18T06:31:28;5.43;;;4.50;;
34098;SDS011;20374;49.474;10.944;2022-07-18T06:33:54;5.03;;;4.60;;
34098;SDS011;20374;49.474;10.944;2022-07-18T06:36:20;4.43;;;4.13;;
34098;SDS011;20374;49.474;10.944;2022-07-18T06:38:49;6.18;;;4.20;;
34098;SDS011;20374;49.474;10.944;2022-07-18T06:41:18;4.70;;;4.18;;
34098;SDS011;20374;49.474;10.944;2022-07-18T06:43:44;4.32;;;4.03;;
34098;SDS011;20374;49.474;10.944;2022-07-18T06:46:10;4.83;;;4.43;;
34098;SDS011;20374;49.474;10.944;2022-07-18T06:48:36;3.72;;;3.42;;
34098;SDS011;20374;49.474;10.944;2022-07-18T06:51:03;4.28;;;3.95;;
34098;SDS011;20374;49.474;10.944;2022-07-18T06:53:30;4.93;;;3.90;;
34098;SDS011;20374;49.474;10.944;2022-07-18T06:55:57;4.75;;;4.40;;
34098;SDS011;20374;49.474;10.944;2022-07-18T06:58:23;4.47;;;4.18;;
34098;SDS011;20374;49.474;10.944;2022-07-18T07:00:50;3.85;;;3.55;;
34098;SDS011;20374;49.474;10.944;2022-07-18T07:03:16;4.53;;;4.13;;
34098;SDS011;20374;49.474;10.944;2022-07-18T07:05:42;4.80;;;4.47;;
34098;SDS011;20374;49.474;10.944;2022-07-18T07:08:08;4.85;;;4.50;;
34098;SDS011;20374;49.474;10.944;2022-07-18T07:10:34;4.65;;;4.35;;
34098;SDS011;20374;49.474;10.944;2022-07-18T07:13:00;5.47;;;5.07;;
34098;SDS011;20374;49.474;10.944;2022-07-18T07:15:26;5.78;;;3.92;;
34098;SDS011;20374;49.474;10.944;2022-07-18T07:17:52;4.60;;;4.25;;
34098;SDS011;20374;49.474;10.944;2022-07-18T07:20:18;4.45;;;4.15;;
34098;SDS011;20374;49.474;10.944;2022-07-18T07:22:53;3.90;;;3.60;;
34098;SDS011;20374;49.474;10.944;2022-07-18T07:25:21;4.30;;;4.00;;
34098;SDS011;20374;49.474;10.944;2022-07-18T07:27:48;4.75;;;4.45;;
34098;SDS011;20374;49.474;10.944;2022-07-18T07:30:14;5.18;;;3.97;;
34098;SDS011;20374;49.474;10.944;2022-07-18T07:32:41;4.57;;;4.28;;
34098;SDS011;20374;49.474;10.944;2022-07-18T07:35:10;4.65;;;4.25;;
34098;SDS011;20374;49.474;10.944;2022-07-18T07:37:38;4.88;;;4.55;;
34098;SDS011;20374;49.474;10.944;2022-07-18T07:40:04;4.47;;;4.07;;
34098;SDS011;20374;49.474;10.944;2022-07-18T07:42:31;4.45;;;4.05;;
34098;SDS011;20374;49.474;10.944;2022-07-18T07:44:57;5.33;;;4.93;;
34098;SDS011;20374;49.474;10.944;2022-07-18T07:47:23;4.35;;;4.05;;
34098;SDS011;20374;49.474;10.944;2022-07-18T07:49:48;4.95;;;4.30;;
34098;SDS011;20374;49.474;10.944;2022-07-18T07:52:14;4.38;;;4.07;;
34098;SDS011;20374;49.474;10.944;2022-07-18T07:54:42;4.25;;;3.95;;
34098;SDS011;20374;49.474;10.944;2022-07-18T07:57:12;4.20;;;3.90;;
34098;SDS011;20374;49.474;10.944;2022-07-18T07:59:38;4.80;;;4.50;;
34098;SDS011;20374;49.474;10.944;2022-07-18T08:02:04;5.00;;;4.70;;
34098;SDS011;20374;49.474;10.944;2022-07-18T08:04:30;4.80;;;4.40;;
34098;SDS011;20374;49.474;10.944;2022-07-18T08:06:56;4.45;;;4.15;;
34098;SDS011;20374;49.474;10.944;2022-07-18T08:09:22;5.23;;;4.87;;
34098;SDS011;20374;49.474;10.944;2022-07-18T08:11:47;5.40;;;4.90;;
34098;SDS011;20374;49.474;10.944;2022-07-18T08:14:13;5.20;;;4.80;;
34098;SDS011;20374;49.474;10.944;2022-07-18T08:16:42;4.77;;;4.47;;
34098;SDS011;20374;49.474;10.944;2022-07-18T08:19:08;4.93;;;4.53;;
34098;SDS011;20374;49.474;10.944;2022-07-18T08:21:34;4.88;;;4.50;;
34098;SDS011;20374;49.474;10.944;2022-07-18T08:24:00;6.78;;;6.30;;
34098;SDS011;20374;49.474;10.944;2022-07-18T08:26:26;5.35;;;5.05;;
34098;SDS011;20374;49.474;10.944;2022-07-18T08:28:51;4.88;;;4.47;;
34098;SDS011;20374;49.474;10.944;2022-07-18T08:31:18;4.57;;;4.18;;
34098;SDS011;20374;49.474;10.944;2022-07-18T08:33:44;5.03;;;4.70;;
34098;SDS011;20374;49.474;10.944;2022-07-18T08:36:11;5.30;;;4.90;;
34098;SDS011;20374;49.474;10.944;2022-07-18T08:38:37;5.15;;;4.75;;
34098;SDS011;20374;49.474;10.944;2022-07-18T08:41:03;5.00;;;4.50;;
34098;SDS011;20374;49.474;10.944;2022-07-18T08:43:30;5.80;;;4.93;;
34098;SDS011;20374;49.474;10.944;2022-07-18T08:45:59;5.13;;;4.77;;
34098;SDS011;20374;49.474;10.944;2022-07-18T08:48:30;4.55;;;4.20;;
34098;SDS011;20374;49.474;10.944;2022-07-18T08:50:57;4.80;;;4.47;;
34098;SDS011;20374;49.474;10.944;2022-07-18T08:53:25;5.78;;;4.53;;
34098;SDS011;20374;49.474;10.944;2022-07-18T08:55:51;5.75;;;5.25;;
34098;SDS011;20374;49.474;10.944;2022-07-18T08:58:17;5.75;;;4.55;;
34098;SDS011;20374;49.474;10.944;2022-07-18T09:00:44;6.20;;;5.00;;
34098;SDS011;20374;49.474;10.944;2022-07-18T09:03:10;5.85;;;5.35;;
34098;SDS011;20374;49.474;10.944;2022-07-18T09:05:36;5.78;;;4.80;;
34098;SDS011;20374;49.474;10.944;2022-07-18T09:10:41;4.65;;;4.35;;
34098;SDS011;20374;49.474;10.944;2022-07-18T09:13:20;4.78;;;4.38;;
34098;SDS011;20374;49.474;10.944;2022-07-18T09:15:57;4.78;;;4.22;;
34098;SDS011;20374;49.474;10.944;2022-07-18T09:18:40;5.53;;;5.13;;
34098;SDS011;20374;49.474;10.944;2022-07-18T09:21:09;5.20;;;4.90;;
34098;SDS011;20374;49.474;10.944;2022-07-18T09:23:41;5.63;;;5.18;;
34098;SDS011;20374;49.474;10.944;2022-07-18T09:26:09;5.80;;;5.50;;
34098;SDS011;20374;49.474;10.944;2022-07-18T09:28:49;6.05;;;5.65;;
34098;SDS011;20374;49.474;10.944;2022-07-18T09:31:17;6.57;;;6.18;;
34098;SDS011;20374;49.474;10.944;2022-07-18T09:33:51;6.40;;;5.88;;
34098;SDS011;20374;49.474;10.944;2022-07-18T09:36:21;4.20;;;3.90;;
34098;SDS011;20374;49.474;10.944;2022-07-18T09:38:47;4.60;;;4.30;;
34098;SDS011;20374;49.474;10.944;2022-07-18T09:41:13;5.40;;;5.10;;
34098;SDS011;20374;49.474;10.944;2022-07-18T09:43:40;6.13;;;5.63;;
34098;SDS011;20374;49.474;10.944;2022-07-18T09:46:07;6.07;;;5.68;;
34098;SDS011;20374;49.474;10.944;2022-07-18T09:48:33;6.65;;;6.18;;
34098;SDS011;20374;49.474;10.944;2022-07-18T09:51:00;5.50;;;5.15;;
34098;SDS011;20374;49.474;10.944;2022-07-18T09:53:32;5.47;;;5.07;;
34098;SDS011;20374;49.474;10.944;2022-07-18T09:56:00;6.18;;;5.70;;
34098;SDS011;20374;49.474;10.944;2022-07-18T09:58:32;6.05;;;5.75;;
34098;SDS011;20374;49.474;10.944;2022-07-18T10:01:00;4.50;;;4.10;;
34098;SDS011;20374;49.474;10.944;2022-07-18T10:03:29;5.45;;;5.05;;
34098;SDS011;20374;49.474;10.944;2022-07-18T10:05:57;4.70;;;4.40;;
34098;SDS011;20374;49.474;10.944;2022-07-18T10:08:25;5.13;;;4.72;;
34098;SDS011;20374;49.474;10.944;2022-07-18T10:10:52;5.00;;;4.70;;
34098;SDS011;20374;49.474;10.944;2022-07-18T10:13:22;4.78;;;4.47;;
34098;SDS011;20374;49.474;10.944;2022-07-18T10:15:49;4.57;;;4.28;;
34098;SDS011;20374;49.474;10.944;2022-07-18T10:18:16;5.63;;;5.20;;
34098;SDS011;20374;49.474;10.944;2022-07-18T10:23:21;4.38;;;4.07;;
34098;SDS011;20374;49.474;10.944;2022-07-18T10:26:14;4.90;;;4.60;;
34098;SDS011;20374;49.474;10.944;2022-07-18T10:31:26;5.10;;;4.78;;
34098;SDS011;20374;49.474;10.944;2022-07-18T10:36:42;4.95;;;4.65;;
34098;SDS011;20374;49.474;10.944;2022-07-18T10:39:43;4.68;;;4.22;;
34098;SDS011;20374;49.474;10.944;2022-07-18T10:42:13;5.00;;;4.57;;
34098;SDS011;20374;49.474;10.944;2022-07-18T10:44:40;4.70;;;4.30;;
34098;SDS011;20374;49.474;10.944;2022-07-18T10:47:07;3.75;;;3.45;;
34098;SDS011;20374;49.474;10.944;2022-07-18T10:57:40;5.07;;;4.68;;
34098;SDS011;20374;49.474;10.944;2022-07-18T11:02:37;4.35;;;4.05;;
34098;SDS011;20374;49.474;10.944;2022-07-18T11:21:28;3.70;;;3.50;;
34098;SDS011;20374;49.474;10.944;2022-07-18T11:26:25;4.55;;;4.15;;
34098;SDS011;20374;49.474;10.944;2022-07-18T11:29:04;5.72;;;5.20;;
34098;SDS011;20374;49.474;10.944;2022-07-18T11:31:48;4.85;;;4.55;;
34098;SDS011;20374;49.474;10.944;2022-07-18T11:34:19;4.72;;;4.43;;
34098;SDS011;20374;49.474;10.944;2022-07-18T11:36:46;4.75;;;4.45;;
34098;SDS011;20374;49.474;10.944;2022-07-18T11:39:13;4.43;;;4.13;;
34098;SDS011;20374;49.474;10.944;2022-07-18T11:41:40;4.15;;;3.95;;
34098;SDS011;20374;49.474;10.944;2022-07-18T11:44:16;4.47;;;4.15;;
34098;SDS011;20374;49.474;10.944;2022-07-18T11:46:44;5.40;;;5.10;;
34098;SDS011;20374;49.474;10.944;2022-07-18T11:49:10;4.57;;;4.28;;
34098;SDS011;20374;49.474;10.944;2022-07-18T11:54:06;4.88;;;4.57;;
34098;SDS011;20374;49.474;10.944;2022-07-18T11:56:32;4.35;;;4.05;;
34098;SDS011;20374;49.474;10.944;2022-07-18T11:59:09;3.67;;;3.38;;
34098;SDS011;20374;49.474;10.944;2022-07-18T12:01:36;5.18;;;4.88;;
34098;SDS011;20374;49.474;10.944;2022-07-18T12:04:02;4.10;;;3.80;;
34098;SDS011;20374;49.474;10.944;2022-07-18T12:06:28;3.63;;;3.33;;
34098;SDS011;20374;49.474;10.944;2022-07-18T12:08:54;4.95;;;4.57;;
34098;SDS011;20374;49.474;10.944;2022-07-18T12:11:32;5.65;;;5.25;;
34098;SDS011;20374;49.474;10.944;2022-07-18T12:16:38;5.43;;;5.07;;
34098;SDS011;20374;49.474;10.944;2022-07-18T12:19:14;3.80;;;3.57;;
34098;SDS011;20374;49.474;10.944;2022-07-18T12:24:53;4.57;;;4.28;;
34098;SDS011;20374;49.474;10.944;2022-07-18T12:32:55;3.97;;;3.67;;
34098;SDS011;20374;49.474;10.944;2022-07-18T12:35:27;4.05;;;3.85;;
34098;SDS011;20374;49.474;10.944;2022-07-18T12:43:29;4.90;;;4.60;;
34098;SDS011;20374;49.474;10.944;2022-07-18T12:46:00;3.87;;;3.53;;
34098;SDS011;20374;49.474;10.944;2022-07-18T12:48:29;4.53;;;4.22;;
34098;SDS011;20374;49.474;10.944;2022-07-18T12:51:29;5.53;;;5.13;;
34098;SDS011;20374;49.474;10.944;2022-07-18T12:53:54;4.72;;;4.43;;
34098;SDS011;20374;49.474;10.944;2022-07-18T12:56:20;4.83;;;4.53;;
34098;SDS011;20374;49.474;10.944;2022-07-18T12:58:46;5.38;;;5.07;;
34098;SDS011;20374;49.474;10.944;2022-07-18T13:01:12;4.75;;;4.45;;
34098;SDS011;20374;49.474;10.944;2022-07-18T13:03:38;4.53;;;4.22;;
34098;SDS011;20374;49.474;10.944;2022-07-18T13:06:05;7.22;;;5.20;;
34098;SDS011;20374;49.474;10.944;2022-07-18T13:08:31;4.38;;;4.07;;
34098;SDS011;20374;49.474;10.944;2022-07-18T13:10:58;5.15;;;4.38;;
34098;SDS011;20374;49.474;10.944;2022-07-18T13:13:24;3.45;;;3.25;;
34098;SDS011;20374;49.474;10.944;2022-07-18T13:15:50;4.72;;;4.43;;
34098;SDS011;20374;49.474;10.944;2022-07-18T13:18:16;5.50;;;5.00;;
34098;SDS011;20374;49.474;10.944;2022-07-18T13:20:41;5.80;;;5.40;;
34098;SDS011;20374;49.474;10.944;2022-07-18T13:23:08;5.85;;;5.55;;
34098;SDS011;20374;49.474;10.944;2022-07-18T13:25:36;7.30;;;5.35;;
34098;SDS011;20374;49.474;10.944;2022-07-18T13:28:02;4.43;;;4.13;;
34098;SDS011;20374;49.474;10.944;2022-07-18T13:30:28;4.93;;;4.53;;
34098;SDS011;20374;49.474;10.944;2022-07-18T13:32:54;7.70;;;7.30;;
34098;SDS011;20374;49.474;10.944;2022-07-18T13:35:20;6.20;;;5.70;;
34098;SDS011;20374;49.474;10.944;2022-07-18T13:37:46;5.60;;;5.23;;
34098;SDS011;20374;49.474;10.944;2022-07-18T13:40:12;5.43;;;5.13;;
34098;SDS011;20374;49.474;10.944;2022-07-18T13:42:39;4.63;;;4.32;;
34098;SDS011;20374;49.474;10.944;2022-07-18T13:45:05;5.20;;;4.90;;
34098;SDS011;20374;49.474;10.944;2022-07-18T13:47:31;5.75;;;5.45;;
34098;SDS011;20374;49.474;10.944;2022-07-18T13:49:57;4.90;;;4.60;;
34098;SDS011;20374;49.474;10.944;2022-07-18T13:52:23;4.70;;;4.40;;
34098;SDS011;20374;49.474;10.944;2022-07-18T13:54:49;5.60;;;5.20;;
34098;SDS011;20374;49.474;10.944;2022-07-18T13:57:18;4.80;;;4.45;;
34098;SDS011;20374;49.474;10.944;2022-07-18T13:59:44;5.22;;;4.93;;
34098;SDS011;20374;49.474;10.944;2022-07-18T14:02:10;4.68;;;4.38;;
34098;SDS011;20374;49.474;10.944;2022-07-18T14:04:35;4.50;;;4.13;;
34098;SDS011;20374;49.474;10.944;2022-07-18T14:07:01;5.63;;;5.32;;
34098;SDS011;20374;49.474;10.944;2022-07-18T14:09:27;5.97;;;5.67;;
34098;SDS011;20374;49.474;10.944;2022-07-18T14:11:53;4.55;;;4.18;;
34098;SDS011;20374;49.474;10.944;2022-07-18T14:14:22;5.82;;;5.53;;
34098;SDS011;20374;49.474;10.944;2022-07-18T14:16:48;5.40;;;5.10;;
34098;SDS011;20374;49.474;10.944;2022-07-18T14:19:13;4.88;;;4.57;;
34098;SDS011;20374;49.474;10.944;2022-07-18T14:21:39;5.63;;;5.32;;
34098;SDS011;20374;49.474;10.944;2022-07-18T14:24:05;5.47;;;4.97;;
34098;SDS011;20374;49.474;10.944;2022-07-18T14:26:31;4.90;;;4.60;;
34098;SDS011;20374;49.474;10.944;2022-07-18T14:28:57;4.65;;;4.35;;
34098;SDS011;20374;49.474;10.944;2022-07-18T14:31:23;4.00;;;3.80;;
34098;SDS011;20374;49.474;10.944;2022-07-18T14:33:49;4.73;;;4.43;;
34098;SDS011;20374;49.474;10.944;2022-07-18T14:36:14;6.07;;;5.75;;
34098;SDS011;20374;49.474;10.944;2022-07-18T14:38:40;5.20;;;4.47;;
34098;SDS011;20374;49.474;10.944;2022-07-18T14:41:07;4.68;;;4.38;;
34098;SDS011;20374;49.474;10.944;2022-07-18T14:43:33;5.13;;;4.75;;
34098;SDS011;20374;49.474;10.944;2022-07-18T14:45:59;5.33;;;5.03;;
34098;SDS011;20374;49.474;10.944;2022-07-18T14:48:24;5.45;;;5.15;;
34098;SDS011;20374;49.474;10.944;2022-07-18T14:50:50;5.60;;;5.20;;
34098;SDS011;20374;49.474;10.944;2022-07-18T14:53:16;4.67;;;4.37;;
34098;SDS011;20374;49.474;10.944;2022-07-18T14:55:42;5.75;;;5.38;;
34098;SDS011;20374;49.474;10.944;2022-07-18T14:58:09;5.43;;;5.13;;
34098;SDS011;20374;49.474;10.944;2022-07-18T15:00:35;4.57;;;4.27;;
34098;SDS011;20374;49.474;10.944;2022-07-18T15:03:01;5.03;;;4.70;;
34098;SDS011;20374;49.474;10.944;2022-07-18T15:05:27;4.65;;;4.32;;
34098;SDS011;20374;49.474;10.944;2022-07-18T15:07:52;5.70;;;5.30;;
34098;SDS011;20374;49.474;10.944;2022-07-18T15:10:18;4.88;;;4.57;;
34098;SDS011;20374;49.474;10.944;2022-07-18T15:12:44;5.22;;;4.93;;
34098;SDS011;20374;49.474;10.944;2022-07-18T15:15:10;4.00;;;3.80;;
34098;SDS011;20374;49.474;10.944;2022-07-18T15:17:36;5.28;;;4.97;;
34098;SDS011;20374;49.474;10.944;2022-07-18T15:20:03;5.03;;;4.38;;
34098;SDS011;20374;49.474;10.944;2022-07-18T15:22:30;4.87;;;4.57;;
34098;SDS011;20374;49.474;10.944;2022-07-18T15:24:56;4.72;;;4.43;;
34098;SDS011;20374;49.474;10.944;2022-07-18T15:27:21;4.85;;;4.55;;
34098;SDS011;20374;49.474;10.944;2022-07-18T15:29:47;5.05;;;4.63;;
34098;SDS011;20374;49.474;10.944;2022-07-18T15:32:13;6.13;;;5.72;;
34098;SDS011;20374;49.474;10.944;2022-07-18T15:34:39;4.95;;;4.65;;